Terminal Aerodrome Forecast
Issued by NWS

Home | Current Version | Previous Version | Text Only | Print | Product List | Glossary On
Versions: 1 2 3 4 5 6 7 8 9 10 11 12 13 14 15 16 17
000
FTUS43 KPAH 241720
TAFCGI
TAF
KCGI 241720Z 2418/2518 14008KT P6SM OVC060
      TEMPO 2418/2421 5SM SHRA BR BKN030
     FM250000 16008KT P6SM BKN040
     FM250600 16010KT P6SM OVC015 PROB30 2506/2510 3SM -TSRA
      BKN007CB=

USA.gov is the U.S. government's official web portal to all federal, state and local government web resources and services.